createdAt,value
2022-08-05T00:02:43.868Z,3.17
2022-08-05T00:06:05.121Z,4.07
2022-08-05T00:08:46.808Z,4.83
2022-08-05T00:11:27.992Z,3.50
2022-08-05T00:14:02.162Z,3.60
2022-08-05T00:16:52.113Z,3.70
2022-08-05T00:19:23.477Z,3.77
2022-08-05T00:22:13.498Z,3.97
2022-08-05T00:24:58.503Z,3.90
2022-08-05T00:27:45.524Z,3.93
2022-08-05T00:30:29.023Z,4.27
2022-08-05T00:32:57.538Z,3.80
2022-08-05T00:35:33.236Z,3.70
2022-08-05T00:38:04.988Z,3.53
2022-08-05T00:40:57.031Z,4.20
2022-08-05T00:43:25.987Z,4.03
2022-08-05T00:46:11.273Z,3.30
2022-08-05T00:48:50.779Z,4.83
2022-08-05T00:51:51.013Z,4.03
2022-08-05T00:54:22.089Z,3.77
2022-08-05T00:56:56.496Z,4.07
2022-08-05T00:59:24.941Z,4.30
2022-08-05T01:01:53.529Z,4.20
2022-08-05T01:04:26.800Z,4.83
2022-08-05T01:06:58.915Z,4.23
2022-08-05T01:09:30.458Z,4.33
2022-08-05T01:12:17.871Z,3.97
2022-08-05T01:14:59.355Z,4.53
2022-08-05T01:17:44.096Z,4.07
2022-08-05T01:20:28.805Z,4.10
2022-08-05T01:23:22.787Z,4.30
2022-08-05T01:26:26.370Z,4.43
2022-08-05T01:29:04.230Z,5.00
2022-08-05T01:31:44.879Z,4.23
2022-08-05T01:34:20.891Z,5.47
2022-08-05T01:37:00.533Z,4.77
2022-08-05T01:39:46.704Z,4.50
2022-08-05T01:42:20.435Z,4.53
2022-08-05T01:44:54.490Z,4.30
2022-08-05T01:47:38.779Z,4.73
2022-08-05T01:50:14.990Z,4.00
2022-08-05T01:52:49.991Z,4.40
2022-08-05T01:55:23.413Z,5.17
2022-08-05T01:58:11.440Z,4.50
2022-08-05T02:00:51.614Z,4.23
2022-08-05T02:03:31.943Z,4.57
2022-08-05T02:06:37.452Z,4.50
2022-08-05T02:09:03.381Z,4.70
2022-08-05T02:11:47.914Z,5.10
2022-08-05T02:14:24.278Z,4.40
2022-08-05T02:17:00.018Z,4.87
2022-08-05T02:19:47.198Z,4.70
2022-08-05T02:22:26.362Z,4.83
2022-08-05T02:25:03.462Z,4.10
2022-08-05T02:27:58.272Z,4.27
2022-08-05T02:30:31.887Z,4.60
2022-08-05T02:33:08.248Z,4.53
2022-08-05T02:35:50.942Z,4.47
2022-08-05T02:38:35.084Z,4.80
2022-08-05T02:41:22.929Z,5.13
2022-08-05T02:44:06.014Z,5.87
2022-08-05T02:46:53.473Z,4.60
2022-08-05T02:49:36.088Z,4.43
2022-08-05T02:52:25.921Z,4.23
2022-08-05T02:55:01.946Z,4.60
2022-08-05T02:58:10.545Z,4.90
2022-08-05T03:00:25.348Z,4.73
2022-08-05T03:02:55.829Z,5.17
2022-08-05T03:06:56.096Z,4.90
2022-08-05T03:08:16.679Z,5.50
2022-08-05T03:11:45.932Z,4.73
2022-08-05T03:13:51.823Z,5.00
2022-08-05T03:16:31.667Z,4.80
2022-08-05T03:19:01.244Z,4.83
2022-08-05T03:21:41.713Z,4.83
2022-08-05T03:24:26.894Z,5.07
2022-08-05T03:26:58.796Z,4.90
2022-08-05T03:29:45.809Z,5.20
2022-08-05T03:32:17.297Z,5.40
2022-08-05T03:34:50.959Z,5.37
2022-08-05T03:37:22.801Z,5.80
2022-08-05T03:40:01.242Z,5.43
2022-08-05T03:42:32.838Z,5.60
2022-08-05T03:45:03.547Z,5.90
2022-08-05T03:47:50.594Z,5.40
2022-08-05T03:50:19.411Z,5.43
2022-08-05T03:55:07.001Z,5.77
2022-08-05T03:56:10.804Z,5.60
2022-08-05T03:58:47.955Z,5.17
2022-08-05T04:01:23.736Z,5.90
2022-08-05T04:04:09.691Z,5.83
2022-08-05T04:06:47.593Z,5.30
2022-08-05T04:09:20.274Z,4.83
2022-08-05T04:11:56.558Z,5.30
2022-08-05T04:14:30.089Z,4.97
2022-08-05T04:17:02.847Z,5.57
2022-08-05T04:19:32.075Z,5.20
2022-08-05T04:22:08.641Z,4.93
2022-08-05T04:24:52.276Z,5.07
2022-08-05T04:27:33.112Z,5.70
2022-08-05T04:30:12.204Z,6.00
2022-08-05T04:32:40.778Z,6.07
2022-08-05T04:35:17.408Z,7.43
2022-08-05T04:38:02.797Z,6.80
2022-08-05T04:40:38.012Z,6.70
2022-08-05T04:43:16.718Z,6.73
2022-08-05T04:45:55.580Z,6.87
2022-08-05T04:48:27.672Z,6.30
2022-08-05T04:51:03.236Z,5.27
2022-08-05T04:53:38.572Z,4.80
2022-08-05T04:56:34.017Z,6.30
2022-08-05T04:59:00.647Z,4.93
2022-08-05T05:02:07.481Z,4.83
2022-08-05T05:04:38.425Z,5.23
2022-08-05T05:07:12.742Z,5.07
2022-08-05T05:09:45.098Z,5.10
2022-08-05T05:12:15.133Z,6.10
2022-08-05T05:14:55.219Z,5.20
2022-08-05T05:17:56.585Z,4.80
2022-08-05T05:20:16.600Z,5.20
2022-08-05T05:23:19.530Z,5.20
2022-08-05T05:26:28.149Z,5.97
2022-08-05T05:29:20.633Z,5.33
2022-08-05T05:33:17.087Z,5.40
2022-08-05T05:37:00.513Z,6.13
2022-08-05T05:39:47.121Z,5.67
2022-08-05T05:42:16.911Z,5.03
2022-08-05T05:45:27.539Z,5.40
2022-08-05T05:52:51.027Z,4.97
2022-08-05T05:55:52.126Z,5.43
2022-08-05T05:58:40.881Z,5.77
2022-08-05T06:01:24.781Z,4.80
2022-08-05T06:07:22.704Z,5.00
2022-08-05T06:18:02.263Z,4.87
2022-08-05T06:20:31.513Z,5.10
2022-08-05T06:23:01.328Z,4.63
2022-08-05T06:26:12.269Z,5.23
2022-08-05T06:28:22.549Z,5.30
2022-08-05T06:30:59.699Z,5.70
2022-08-05T06:34:06.825Z,5.20
2022-08-05T06:36:27.682Z,6.00
2022-08-05T06:39:15.968Z,5.10
2022-08-05T06:41:44.935Z,5.60
2022-08-05T06:44:15.928Z,5.00
2022-08-05T06:46:46.534Z,4.17
2022-08-05T06:50:01.354Z,4.47
2022-08-05T06:52:38.126Z,4.53
2022-08-05T06:55:10.492Z,4.40
2022-08-05T06:58:03.375Z,4.37
2022-08-05T07:00:27.904Z,4.83
2022-08-05T07:03:01.555Z,4.87
2022-08-05T07:05:37.416Z,4.80
2022-08-05T07:08:10.907Z,4.00
2022-08-05T07:10:53.073Z,4.30
2022-08-05T07:13:58.161Z,4.30
2022-08-05T07:18:02.125Z,4.20
2022-08-05T07:20:46.284Z,4.13
2022-08-05T08:56:03.948Z,3.73
2022-08-05T08:58:43.574Z,3.10
2022-08-05T09:01:18.363Z,3.40
2022-08-05T09:03:53.075Z,3.63
2022-08-05T09:06:28.086Z,3.37
2022-08-05T09:09:02.094Z,3.73
2022-08-05T09:11:52.710Z,4.60
2022-08-05T09:14:58.769Z,3.23
2022-08-05T09:17:40.008Z,3.50
2022-08-05T09:20:05.076Z,3.60
2022-08-05T09:23:22.130Z,3.87
2022-08-05T09:26:08.557Z,3.80
2022-08-05T09:28:40.604Z,3.50
2022-08-05T09:32:38.558Z,3.83
2022-08-05T09:34:06.726Z,3.80
2022-08-05T09:36:45.679Z,3.90
2022-08-05T09:39:27.703Z,3.70
2022-08-05T09:42:13.567Z,3.83
2022-08-05T09:44:56.580Z,3.90
2022-08-05T09:47:48.462Z,3.67
2022-08-05T09:50:38.156Z,3.70
2022-08-05T09:53:12.052Z,3.53
2022-08-05T09:56:13.159Z,3.67
2022-08-05T09:58:42.360Z,3.53
2022-08-05T10:01:31.574Z,3.80
2022-08-05T10:04:10.359Z,3.73
2022-08-05T10:06:41.573Z,3.40
2022-08-05T10:09:27.522Z,3.90
2022-08-05T10:12:18.506Z,3.10
2022-08-05T10:15:17.287Z,3.10
2022-08-05T10:18:10.949Z,3.17
2022-08-05T10:20:47.971Z,2.73
2022-08-05T10:23:34.048Z,2.70
2022-08-05T10:26:14.271Z,2.60
2022-08-05T10:28:46.343Z,2.70
2022-08-05T10:32:52.206Z,2.50
2022-08-05T10:34:07.958Z,2.00
2022-08-05T10:36:41.281Z,2.30
2022-08-05T10:39:24.984Z,2.40
2022-08-05T10:42:20.581Z,2.30
2022-08-05T10:45:02.309Z,2.43
2022-08-05T10:48:27.624Z,2.43
2022-08-05T10:51:01.018Z,2.37
2022-08-05T10:53:58.497Z,2.10
2022-08-05T10:56:37.577Z,2.50
2022-08-05T10:59:12.643Z,2.33
2022-08-05T11:02:23.665Z,2.50
2022-08-05T11:05:05.758Z,2.23
2022-08-05T11:08:02.438Z,2.17
2022-08-05T11:10:27.589Z,2.63
2022-08-05T11:12:57.530Z,2.13
2022-08-05T11:16:00.824Z,1.90
2022-08-05T11:18:32.268Z,2.00
2022-08-05T11:21:02.744Z,2.20
2022-08-05T11:24:04.923Z,2.50
2022-08-05T11:26:49.589Z,2.07
2022-08-05T11:29:40.398Z,2.20
2022-08-05T11:32:29.186Z,2.13
2022-08-05T11:34:58.675Z,2.50
2022-08-05T11:38:26.825Z,2.50
2022-08-05T11:41:34.794Z,2.23
2022-08-05T11:44:07.508Z,2.23
2022-08-05T11:46:57.938Z,2.73
2022-08-05T11:49:28.033Z,2.57
2022-08-05T11:51:57.349Z,2.23
2022-08-05T11:54:33.457Z,1.97
2022-08-05T11:57:07.941Z,2.00
2022-08-05T11:59:54.820Z,1.83
2022-08-05T12:02:33.038Z,2.27
2022-08-05T12:05:08.180Z,2.40
2022-08-05T12:08:08.484Z,2.00
2022-08-05T12:10:45.425Z,2.10
2022-08-05T12:13:27.988Z,2.33
2022-08-05T12:16:32.754Z,2.20
2022-08-05T12:19:09.893Z,2.17
2022-08-05T12:21:58.500Z,1.87
2022-08-05T12:24:31.682Z,1.83
2022-08-05T12:27:09.937Z,1.80
2022-08-05T12:30:03.243Z,2.20
2022-08-05T12:32:35.969Z,2.03
2022-08-05T12:35:09.517Z,1.70
2022-08-05T12:38:31.422Z,2.70
2022-08-05T12:41:00.951Z,3.23
2022-08-05T12:43:32.209Z,1.87
2022-08-05T12:46:00.913Z,2.10
2022-08-05T12:48:40.792Z,1.53
2022-08-05T12:52:12.789Z,1.90
2022-08-05T12:54:26.522Z,2.20
2022-08-05T12:56:58.211Z,2.17
2022-08-05T12:59:46.894Z,2.00
2022-08-05T13:02:27.276Z,2.10
2022-08-05T13:05:00.721Z,2.50
2022-08-05T13:07:59.485Z,1.83
2022-08-05T13:10:19.364Z,2.10
2022-08-05T13:12:51.071Z,2.07
2022-08-05T13:15:36.006Z,2.47
2022-08-05T13:18:18.852Z,1.90
2022-08-05T13:20:50.503Z,2.17
2022-08-05T13:23:22.514Z,2.13
2022-08-05T13:25:59.575Z,2.10
2022-08-05T13:28:32.090Z,1.90
2022-08-05T13:31:03.303Z,1.60
2022-08-05T13:34:21.305Z,1.90
2022-08-05T13:36:40.287Z,2.57
2022-08-05T13:39:09.857Z,1.87
2022-08-05T13:41:58.183Z,1.93
2022-08-05T13:44:27.754Z,2.20
2022-08-05T13:47:04.513Z,2.27
2022-08-05T13:49:37.103Z,1.90
2022-08-05T13:52:17.679Z,1.97
2022-08-05T13:54:53.222Z,2.00
2022-08-05T13:57:22.803Z,1.70
2022-08-05T13:59:55.588Z,2.17
2022-08-05T14:02:29.869Z,2.33
2022-08-05T14:05:15.141Z,2.30
2022-08-05T14:08:00.725Z,2.10
2022-08-05T14:10:35.379Z,2.80
2022-08-05T14:13:07.371Z,2.33
2022-08-05T14:16:05.783Z,2.17
2022-08-05T14:18:25.249Z,2.07
2022-08-05T14:20:55.016Z,2.50
2022-08-05T14:23:28.092Z,2.40
2022-08-05T14:26:02.173Z,2.23
2022-08-05T14:28:33.500Z,2.30
2022-08-05T14:31:03.002Z,2.00
2022-08-05T14:34:00.383Z,2.00
2022-08-05T14:36:29.225Z,1.70
2022-08-05T14:39:02.764Z,2.57
2022-08-05T14:41:34.792Z,1.90
2022-08-05T14:44:10.028Z,1.90
2022-08-05T14:46:49.274Z,1.90
2022-08-05T14:49:17.780Z,2.30
2022-08-05T14:51:46.302Z,2.13
2022-08-05T14:54:27.527Z,2.70
2022-08-05T14:56:58.654Z,2.63
2022-08-05T14:59:29.433Z,2.33
2022-08-05T15:01:59.938Z,2.10
2022-08-05T15:04:29.114Z,3.17
2022-08-05T15:06:58.134Z,2.40
2022-08-05T15:09:51.496Z,2.70
2022-08-05T15:12:17.223Z,2.53
2022-08-05T15:14:49.492Z,2.27
2022-08-05T15:17:47.095Z,2.60
2022-08-05T15:20:18.505Z,2.03
2022-08-05T15:22:54.401Z,2.33
2022-08-05T15:25:40.905Z,2.40
2022-08-05T15:28:16.233Z,2.17
2022-08-05T15:30:46.609Z,2.10
2022-08-05T15:34:04.705Z,2.17
2022-08-05T15:36:24.519Z,2.30
2022-08-05T15:40:40.969Z,2.37
2022-08-05T15:41:58.441Z,2.17
2022-08-05T15:44:30.441Z,2.60
2022-08-05T15:47:01.749Z,2.40
2022-08-05T15:49:53.370Z,2.57
2022-08-05T15:52:51.839Z,2.70
2022-08-05T15:55:15.589Z,2.50
2022-08-05T15:57:48.917Z,2.60
2022-08-05T16:00:25.810Z,2.70
2022-08-05T16:03:01.425Z,3.00
2022-08-05T16:05:30.632Z,2.60
2022-08-05T16:07:59.216Z,2.30
2022-08-05T16:10:28.770Z,1.90
2022-08-05T16:12:59.046Z,2.80
2022-08-05T16:15:32.615Z,2.37
2022-08-05T16:18:04.233Z,2.13
2022-08-05T16:20:37.656Z,2.23
2022-08-05T16:23:08.479Z,2.80
2022-08-05T16:25:37.951Z,2.33
2022-08-05T16:28:11.588Z,2.80
2022-08-05T16:30:42.758Z,2.07
2022-08-05T16:33:13.645Z,2.53
2022-08-05T16:35:44.669Z,2.57
2022-08-05T16:38:25.423Z,2.60
2022-08-05T16:41:00.748Z,1.93
2022-08-05T16:43:33.344Z,2.80
2022-08-05T16:46:27.699Z,2.73
2022-08-05T16:48:55.810Z,2.80
2022-08-05T16:51:24.621Z,2.30
2022-08-05T16:54:05.727Z,2.40
2022-08-05T16:56:41.591Z,1.93
2022-08-05T16:59:14.659Z,2.03
2022-08-05T17:01:53.979Z,2.40
2022-08-05T17:04:27.354Z,2.53
2022-08-05T17:07:01.144Z,2.97
2022-08-05T17:09:57.459Z,3.10
2022-08-05T17:12:22.666Z,1.90
2022-08-05T17:15:10.888Z,1.90
2022-08-05T17:17:54.965Z,2.33
2022-08-05T17:20:25.043Z,2.00
2022-08-05T17:22:57.396Z,2.50
2022-08-05T17:25:39.525Z,2.13
2022-08-05T17:28:09.253Z,2.00
2022-08-05T17:30:42.479Z,2.50
2022-08-05T17:33:11.288Z,2.50
2022-08-05T17:36:08.888Z,2.30
2022-08-05T17:38:30.052Z,2.37
2022-08-05T17:41:00.838Z,2.10
2022-08-05T17:43:50.305Z,1.90
2022-08-05T17:46:23.725Z,2.40
2022-08-05T17:48:52.332Z,2.10
2022-08-05T17:51:21.774Z,2.97
2022-08-05T17:53:54.888Z,2.30
2022-08-05T17:56:29.447Z,2.23
2022-08-05T17:58:58.039Z,2.37
2022-08-05T18:01:28.082Z,2.40
2022-08-05T18:04:21.073Z,2.40
2022-08-05T18:06:50.129Z,2.47
2022-08-05T18:09:18.830Z,2.30
2022-08-05T18:11:52.390Z,3.10
2022-08-05T18:14:23.055Z,2.67
2022-08-05T18:16:53.756Z,2.33
2022-08-05T18:19:22.986Z,3.20
2022-08-05T18:22:08.308Z,2.77
2022-08-05T18:24:40.092Z,3.10
2022-08-05T18:27:12.571Z,2.40
2022-08-05T18:29:53.682Z,2.40
2022-08-05T18:36:57.142Z,2.50
2022-08-05T18:40:30.885Z,2.43
2022-08-05T18:42:15.128Z,2.87
2022-08-05T18:44:51.403Z,2.27
2022-08-05T18:47:26.436Z,2.80
2022-08-05T18:50:10.747Z,3.10
2022-08-05T18:52:51.274Z,2.70
2022-08-05T18:55:22.285Z,3.27
2022-08-05T18:58:03.508Z,3.20
2022-08-05T19:00:34.779Z,3.00
2022-08-05T19:03:05.084Z,3.10
2022-08-05T19:06:12.600Z,3.13
2022-08-05T19:08:30.152Z,3.00
2022-08-05T19:11:04.686Z,2.53
2022-08-05T19:13:36.676Z,3.20
2022-08-05T19:16:25.067Z,2.83
2022-08-05T19:18:57.165Z,5.80
2022-08-05T19:21:34.470Z,7.37
2022-08-05T19:24:12.470Z,8.30
2022-08-05T19:26:55.030Z,9.37
2022-08-05T19:29:26.560Z,8.57
2022-08-05T19:32:11.444Z,10.10
2022-08-05T19:34:55.275Z,10.97
2022-08-05T19:37:35.105Z,10.13
2022-08-05T19:40:15.005Z,9.87
2022-08-05T19:43:04.565Z,9.13
2022-08-05T19:45:33.333Z,9.77
2022-08-05T19:48:06.298Z,8.97
2022-08-05T19:50:35.738Z,10.60
2022-08-05T19:53:09.555Z,12.77
2022-08-05T19:56:13.768Z,11.97
2022-08-05T19:58:30.165Z,13.27
2022-08-05T20:00:59.254Z,14.60
2022-08-05T20:03:38.878Z,13.60
2022-08-05T20:06:11.771Z,13.77
2022-08-05T20:08:47.590Z,12.63
2022-08-05T20:11:19.457Z,10.80
2022-08-05T20:13:58.335Z,10.70
2022-08-05T20:16:41.108Z,9.07
2022-08-05T20:19:11.902Z,10.87
2022-08-05T20:21:43.457Z,11.17
2022-08-05T20:24:14.308Z,11.37
2022-08-05T20:26:45.949Z,10.70
2022-08-05T20:29:27.712Z,10.53
2022-08-05T20:31:58.393Z,10.00
2022-08-05T20:34:28.262Z,8.50
2022-08-05T20:36:56.910Z,7.90
2022-08-05T20:39:26.067Z,7.80
2022-08-05T20:42:07.150Z,6.83
2022-08-05T20:44:40.253Z,6.20
2022-08-05T20:47:09.589Z,5.10
2022-08-05T20:49:40.118Z,4.80
2022-08-05T20:52:10.606Z,4.70
2022-08-05T20:54:55.392Z,4.37
2022-08-05T20:57:43.789Z,3.60
2022-08-05T21:00:41.045Z,3.63
2022-08-05T21:03:07.953Z,3.73
2022-08-05T21:05:47.884Z,3.70
2022-08-05T21:08:28.212Z,4.00
2022-08-05T21:11:12.041Z,3.73
2022-08-05T21:13:55.603Z,3.70
2022-08-05T21:16:29.921Z,3.40
2022-08-05T21:19:00.942Z,3.60
2022-08-05T21:21:39.619Z,4.07
2022-08-05T21:24:15.453Z,4.03
2022-08-05T21:26:53.642Z,3.67
2022-08-05T21:29:31.775Z,3.50
2022-08-05T21:32:02.253Z,3.70
2022-08-05T21:34:31.578Z,3.90
2022-08-05T21:37:00.373Z,3.80
2022-08-05T21:39:28.900Z,3.57
2022-08-05T21:42:01.117Z,3.50
2022-08-05T21:44:31.937Z,3.63
2022-08-05T21:47:01.154Z,5.00
2022-08-05T21:49:58.585Z,4.07
2022-08-05T21:52:28.154Z,4.13
2022-08-05T21:55:06.037Z,4.03
2022-08-05T21:57:35.733Z,4.20
2022-08-05T22:00:11.756Z,4.50
2022-08-05T22:02:44.333Z,3.70
2022-08-05T22:05:14.905Z,4.10
2022-08-05T22:07:59.442Z,3.87
2022-08-05T22:10:31.122Z,4.10
2022-08-05T22:13:08.771Z,4.30
2022-08-05T22:16:00.412Z,4.50
2022-08-05T22:18:31.498Z,3.83
2022-08-05T22:21:00.615Z,4.00
2022-08-05T22:24:02.320Z,4.73
2022-08-05T22:26:54.510Z,4.77
2022-08-05T22:29:26.785Z,5.10
2022-08-05T22:32:02.768Z,5.00
2022-08-05T22:34:32.696Z,5.00
2022-08-05T22:37:03.855Z,5.40
2022-08-05T22:39:34.512Z,4.67
2022-08-05T22:42:12.370Z,5.40
2022-08-05T22:44:48.538Z,6.03
2022-08-05T22:47:28.993Z,5.80
2022-08-05T22:50:20.045Z,6.87
2022-08-05T22:52:50.151Z,6.90
2022-08-05T22:55:21.856Z,7.60
2022-08-05T22:57:51.368Z,8.23
2022-08-05T23:00:22.958Z,6.90
2022-08-05T23:02:53.932Z,7.40
2022-08-05T23:05:24.186Z,6.77
2022-08-05T23:07:53.111Z,7.30
2022-08-05T23:10:23.667Z,8.30
2022-08-05T23:12:55.552Z,8.30
2022-08-05T23:15:29.085Z,8.27
2022-08-05T23:18:03.563Z,7.93
2022-08-05T23:20:37.515Z,8.20
2022-08-05T23:23:08.613Z,6.80
2022-08-05T23:25:51.726Z,7.17
2022-08-05T23:28:22.906Z,6.97
2022-08-05T23:30:53.184Z,7.83
2022-08-05T23:33:26.443Z,6.87
2022-08-05T23:36:13.585Z,6.57
2022-08-05T23:38:43.513Z,7.00
2022-08-05T23:41:13.009Z,7.60
2022-08-05T23:44:04.840Z,7.10
2022-08-05T23:46:30.879Z,7.23
2022-08-05T23:49:03.724Z,7.70
2022-08-05T23:52:02.688Z,6.97
2022-08-05T23:54:38.366Z,6.77
2022-08-05T23:57:08.306Z,6.10
